Time;durP1;ratioP1;P1;durP2;ratioP2;P2;SDS_P1;SDS_P2;PMS_P1;PMS_P2;Temp;Humidity;BMP_temperature;BMP_pressure;BME280_temperature;BME280_humidity;BME280_pressure;Samples;Min_cycle;Max_cycle;Signal;HPM_P1;HPM_P2
2023/08/20 00:01:14;;;;;;;12.48;5.53;;;;;;;;;;5004646;28;20073;-80
2023/08/20 00:03:43;;;;;;;7.25;5.10;;;;;;;;;;5003605;28;20530;-81
2023/08/20 00:06:10;;;;;;;11.07;4.85;;;;;;;;;;5007327;28;20057;-80
2023/08/20 00:08:37;;;;;;;7.72;4.97;;;;;;;;;;5021136;28;20050;-80
2023/08/20 00:11:05;;;;;;;6.97;5.05;;;;;;;;;;5018585;28;20117;-80
2023/08/20 00:13:32;;;;;;;10.13;4.63;;;;;;;;;;5007804;28;20140;-79
2023/08/20 00:15:58;;;;;;;7.28;4.50;;;;;;;;;;5008894;28;20068;-80
2023/08/20 00:18:26;;;;;;;11.05;5.00;;;;;;;;;;5014777;28;20056;-81
2023/08/20 00:20:53;;;;;;;8.07;3.97;;;;;;;;;;5019065;28;20053;-80
2023/08/20 00:23:23;;;;;;;10.52;4.65;;;;;;;;;;5021813;28;20046;-79
2023/08/20 00:25:52;;;;;;;8.27;4.55;;;;;;;;;;5011946;28;20042;-80
2023/08/20 00:28:20;;;;;;;7.82;4.90;;;;;;;;;;5010890;28;20087;-79
2023/08/20 00:30:47;;;;;;;9.65;4.88;;;;;;;;;;5015122;28;21073;-80
2023/08/20 00:33:14;;;;;;;7.32;4.60;;;;;;;;;;5014977;28;20128;-81
2023/08/20 00:35:41;;;;;;;9.48;4.82;;;;;;;;;;5016600;28;20109;-79
2023/08/20 00:38:08;;;;;;;7.50;4.32;;;;;;;;;;5010351;28;20049;-79
2023/08/20 00:40:34;;;;;;;6.75;4.40;;;;;;;;;;5006622;28;20054;-80
2023/08/20 00:43:01;;;;;;;8.98;4.47;;;;;;;;;;5012281;28;20674;-79
2023/08/20 00:45:28;;;;;;;9.63;4.68;;;;;;;;;;5014366;28;20042;-79
2023/08/20 00:47:56;;;;;;;6.30;4.07;;;;;;;;;;5010657;28;20042;-79
2023/08/20 00:50:23;;;;;;;13.45;4.63;;;;;;;;;;5011473;28;20045;-79
2023/08/20 00:52:49;;;;;;;8.48;4.47;;;;;;;;;;5011293;28;20457;-80
2023/08/20 00:55:17;;;;;;;10.25;4.93;;;;;;;;;;5015482;28;20042;-77
2023/08/20 00:57:44;;;;;;;9.23;4.78;;;;;;;;;;5013648;28;20052;-79
2023/08/20 01:00:11;;;;;;;8.13;4.93;;;;;;;;;;5003405;28;20109;-80
2023/08/20 01:02:38;;;;;;;9.27;5.00;;;;;;;;;;5010065;28;20550;-79
2023/08/20 01:05:07;;;;;;;8.15;4.82;;;;;;;;;;5014750;28;20052;-79
2023/08/20 01:07:40;;;;;;;7.53;4.75;;;;;;;;;;5014736;28;20085;-79
2023/08/20 01:10:15;;;;;;;10.35;5.07;;;;;;;;;;5023549;28;20057;-78
2023/08/20 01:12:43;;;;;;;8.07;4.25;;;;;;;;;;5026164;28;20057;-77
2023/08/20 01:15:13;;;;;;;13.27;5.43;;;;;;;;;;5017532;28;20109;-79
2023/08/20 01:17:43;;;;;;;9.20;5.35;;;;;;;;;;5012477;28;20050;-79
2023/08/20 01:20:13;;;;;;;10.35;5.60;;;;;;;;;;5008909;28;20065;-79
2023/08/20 01:22:44;;;;;;;9.07;5.43;;;;;;;;;;5010531;28;20049;-79
2023/08/20 01:25:30;;;;;;;12.25;5.70;;;;;;;;;;5006971;28;20042;-79
2023/08/20 01:28:19;;;;;;;10.48;5.40;;;;;;;;;;5005767;28;21349;-79
2023/08/20 01:30:47;;;;;;;9.48;5.32;;;;;;;;;;4998211;28;22264;-79
2023/08/20 01:33:14;;;;;;;9.73;5.60;;;;;;;;;;5004726;28;20045;-77
2023/08/20 01:35:41;;;;;;;10.57;5.57;;;;;;;;;;5007621;28;20048;-79
2023/08/20 01:38:14;;;;;;;14.13;6.30;;;;;;;;;;5006348;28;20078;-78
2023/08/20 01:40:41;;;;;;;9.35;5.60;;;;;;;;;;5008575;28;20069;-78
2023/08/20 01:43:07;;;;;;;10.93;5.32;;;;;;;;;;5017552;28;20050;-79
2023/08/20 01:45:34;;;;;;;10.07;5.93;;;;;;;;;;5002757;28;20038;-78
2023/08/20 01:48:01;;;;;;;8.55;4.47;;;;;;;;;;5008777;28;20122;-78
2023/08/20 01:50:27;;;;;;;12.27;5.45;;;;;;;;;;5004607;28;20121;-79
2023/08/20 01:52:54;;;;;;;9.95;5.72;;;;;;;;;;5006165;28;20483;-80
2023/08/20 01:55:21;;;;;;;9.48;5.88;;;;;;;;;;5005948;28;20096;-80
2023/08/20 01:57:47;;;;;;;9.60;5.40;;;;;;;;;;5024822;28;20050;-80
2023/08/20 02:00:14;;;;;;;19.10;5.80;;;;;;;;;;4995885;28;20049;-79
2023/08/20 02:02:41;;;;;;;7.97;5.07;;;;;;;;;;5009080;28;20047;-80
2023/08/20 02:05:08;;;;;;;8.27;4.75;;;;;;;;;;5013302;28;20053;-79
2023/08/20 02:07:37;;;;;;;13.68;5.68;;;;;;;;;;5009240;28;20042;-80
2023/08/20 02:10:04;;;;;;;9.82;5.80;;;;;;;;;;5008349;28;20554;-78
2023/08/20 02:12:30;;;;;;;12.82;5.97;;;;;;;;;;5018975;28;20057;-80
2023/08/20 02:14:57;;;;;;;13.95;5.43;;;;;;;;;;5010878;28;20064;-78
2023/08/20 02:17:24;;;;;;;11.00;6.43;;;;;;;;;;5003407;28;20069;-79
2023/08/20 02:19:51;;;;;;;10.13;5.68;;;;;;;;;;5007577;28;20046;-80
2023/08/20 02:22:19;;;;;;;8.95;5.57;;;;;;;;;;5007848;28;20045;-78
2023/08/20 02:24:46;;;;;;;11.65;5.95;;;;;;;;;;5005587;28;20050;-79
2023/08/20 02:27:14;;;;;;;13.23;6.10;;;;;;;;;;5013256;28;20132;-79
2023/08/20 02:29:43;;;;;;;8.93;5.90;;;;;;;;;;5006187;28;20038;-80
2023/08/20 02:32:12;;;;;;;10.60;6.20;;;;;;;;;;5011537;28;20050;-78
2023/08/20 02:34:39;;;;;;;9.20;6.38;;;;;;;;;;5013653;28;20046;-80
2023/08/20 02:37:06;;;;;;;12.23;6.30;;;;;;;;;;5012584;28;20046;-78
2023/08/20 02:39:33;;;;;;;14.07;6.35;;;;;;;;;;5008395;28;20128;-79
2023/08/20 02:42:00;;;;;;;10.00;6.25;;;;;;;;;;5021719;28;20129;-79
2023/08/20 02:44:27;;;;;;;10.98;6.50;;;;;;;;;;4991001;28;20528;-79
2023/08/20 02:46:54;;;;;;;12.27;6.53;;;;;;;;;;5009606;28;20113;-78
2023/08/20 02:49:20;;;;;;;11.48;6.78;;;;;;;;;;5015315;28;20065;-79
2023/08/20 02:51:47;;;;;;;9.23;6.55;;;;;;;;;;5016924;28;20050;-80
2023/08/20 02:54:14;;;;;;;14.73;7.15;;;;;;;;;;5012789;28;20045;-79
2023/08/20 02:56:40;;;;;;;15.30;6.72;;;;;;;;;;5009488;28;20072;-79
2023/08/20 02:59:07;;;;;;;11.20;6.22;;;;;;;;;;5019417;28;20069;-81
2023/08/20 03:01:34;;;;;;;10.35;6.93;;;;;;;;;;5014325;28;20129;-80
2023/08/20 03:04:00;;;;;;;9.85;6.70;;;;;;;;;;5014960;28;20050;-80
2023/08/20 03:06:27;;;;;;;11.02;6.93;;;;;;;;;;5009953;28;20074;-80
2023/08/20 03:08:54;;;;;;;11.25;7.28;;;;;;;;;;5018019;28;20056;-79
2023/08/20 03:11:20;;;;;;;10.15;7.18;;;;;;;;;;5014376;28;20096;-79
2023/08/20 03:13:47;;;;;;;11.18;7.13;;;;;;;;;;5013659;28;20290;-79
2023/08/20 03:16:14;;;;;;;14.82;7.10;;;;;;;;;;5010051;28;20045;-79
2023/08/20 03:18:41;;;;;;;12.25;7.10;;;;;;;;;;5006879;28;20062;-80
2023/08/20 03:21:07;;;;;;;10.15;7.10;;;;;;;;;;5010486;28;20052;-78
2023/08/20 03:23:34;;;;;;;15.30;7.53;;;;;;;;;;5008061;28;20590;-79
2023/08/20 03:26:01;;;;;;;19.55;7.65;;;;;;;;;;5005201;28;20045;-79
2023/08/20 03:28:27;;;;;;;12.38;7.15;;;;;;;;;;5017703;28;20092;-79
2023/08/20 03:30:54;;;;;;;13.13;7.18;;;;;;;;;;5009581;28;20062;-79
2023/08/20 03:33:25;;;;;;;16.83;7.18;;;;;;;;;;5009134;28;20085;-78
2023/08/20 03:35:52;;;;;;;13.65;7.10;;;;;;;;;;5010027;28;20046;-79
2023/08/20 03:38:19;;;;;;;14.10;6.97;;;;;;;;;;5009549;28;20041;-80
2023/08/20 03:40:45;;;;;;;15.27;7.45;;;;;;;;;;5017637;28;20049;-79
2023/08/20 03:43:12;;;;;;;12.60;7.63;;;;;;;;;;5006858;28;20085;-79
2023/08/20 03:45:39;;;;;;;11.40;7.25;;;;;;;;;;5013894;28;20148;-79
2023/08/20 03:48:06;;;;;;;12.40;7.15;;;;;;;;;;5034513;28;20077;-80
2023/08/20 03:50:32;;;;;;;13.80;7.40;;;;;;;;;;5024112;28;20058;-80
2023/08/20 03:52:59;;;;;;;12.02;7.25;;;;;;;;;;5019724;28;20164;-81
2023/08/20 03:55:27;;;;;;;15.05;7.72;;;;;;;;;;5022137;28;20046;-81
2023/08/20 03:57:53;;;;;;;16.00;6.85;;;;;;;;;;5012334;28;20418;-79
2023/08/20 04:00:20;;;;;;;12.18;7.20;;;;;;;;;;5013849;28;20069;-80
2023/08/20 04:02:47;;;;;;;13.05;8.02;;;;;;;;;;5010373;28;20042;-79
2023/08/20 04:05:13;;;;;;;12.55;7.78;;;;;;;;;;5018312;28;20569;-79
2023/08/20 04:07:40;;;;;;;9.90;6.90;;;;;;;;;;5019987;28;20034;-80
2023/08/20 04:10:07;;;;;;;13.48;7.35;;;;;;;;;;5015372;28;20640;-80
2023/08/20 04:12:35;;;;;;;12.77;7.68;;;;;;;;;;5007638;28;20046;-78
2023/08/20 04:15:02;;;;;;;12.70;7.63;;;;;;;;;;5015068;28;20050;-78
2023/08/20 04:17:29;;;;;;;12.23;7.78;;;;;;;;;;5009429;28;20073;-80
2023/08/20 04:19:55;;;;;;;13.60;8.07;;;;;;;;;;5030362;28;20088;-81
2023/08/20 04:22:22;;;;;;;16.17;8.13;;;;;;;;;;5012920;28;20049;-81
2023/08/20 04:24:49;;;;;;;14.38;7.80;;;;;;;;;;5013219;28;20045;-79
2023/08/20 04:27:16;;;;;;;16.42;8.10;;;;;;;;;;5019087;28;20061;-81
2023/08/20 04:29:43;;;;;;;13.35;7.82;;;;;;;;;;5008776;28;20053;-81
2023/08/20 04:32:10;;;;;;;15.43;7.97;;;;;;;;;;5014264;28;20046;-81
2023/08/20 04:34:37;;;;;;;10.55;7.28;;;;;;;;;;5019370;28;20054;-80
2023/08/20 04:37:04;;;;;;;14.13;8.13;;;;;;;;;;5010809;28;20045;-80
2023/08/20 04:39:30;;;;;;;14.32;8.80;;;;;;;;;;5032065;28;20057;-78
2023/08/20 04:42:00;;;;;;;18.80;9.88;;;;;;;;;;5009028;28;20046;-81
2023/08/20 04:44:27;;;;;;;14.23;8.75;;;;;;;;;;4994036;28;20282;-79
2023/08/20 04:46:54;;;;;;;17.27;8.73;;;;;;;;;;5011369;28;20069;-79
2023/08/20 04:49:22;;;;;;;14.80;9.32;;;;;;;;;;4994691;28;20102;-79
2023/08/20 04:51:48;;;;;;;14.02;9.50;;;;;;;;;;5005911;28;20111;-80
2023/08/20 04:54:16;;;;;;;18.38;10.32;;;;;;;;;;5018927;28;20038;-79
2023/08/20 04:56:43;;;;;;;16.45;9.73;;;;;;;;;;5007925;28;20042;-79
2023/08/20 04:59:10;;;;;;;14.20;10.15;;;;;;;;;;5017944;28;20061;-79
2023/08/20 05:02:02;;;;;;;17.02;10.07;;;;;;;;;;5003206;28;21515;-79
2023/08/20 05:04:44;;;;;;;19.05;9.70;;;;;;;;;;4987412;28;20045;-80
2023/08/20 05:07:11;;;;;;;14.85;9.45;;;;;;;;;;5019628;28;20068;-81
2023/08/20 05:09:37;;;;;;;17.25;10.68;;;;;;;;;;5010886;28;20061;-80
2023/08/20 05:12:06;;;;;;;20.45;9.85;;;;;;;;;;5017708;28;20810;-80
2023/08/20 05:14:33;;;;;;;18.02;10.38;;;;;;;;;;5008799;28;20062;-80
2023/08/20 05:17:00;;;;;;;15.05;9.85;;;;;;;;;;5028879;28;20105;-80
2023/08/20 05:19:27;;;;;;;18.67;11.05;;;;;;;;;;5021309;28;20129;-79
2023/08/20 05:21:55;;;;;;;20.05;11.48;;;;;;;;;;5004070;28;20042;-80
2023/08/20 05:24:22;;;;;;;21.05;10.93;;;;;;;;;;5007656;28;20049;-79
2023/08/20 05:27:08;;;;;;;17.65;11.10;;;;;;;;;;4998588;28;20128;-80
2023/08/20 05:29:34;;;;;;;14.25;10.73;;;;;;;;;;4998628;28;20118;-79
2023/08/20 05:32:01;;;;;;;19.27;10.30;;;;;;;;;;5000537;28;20046;-79
2023/08/20 05:34:28;;;;;;;18.30;11.50;;;;;;;;;;5004913;28;20039;-80
2023/08/20 05:36:55;;;;;;;18.27;10.80;;;;;;;;;;5006469;28;20118;-79
2023/08/20 05:39:23;;;;;;;16.23;10.77;;;;;;;;;;5015806;28;20056;-80
2023/08/20 05:41:50;;;;;;;20.20;11.95;;;;;;;;;;5017765;28;20263;-80
2023/08/20 05:44:19;;;;;;;18.80;10.68;;;;;;;;;;5022250;28;21113;-80
2023/08/20 05:46:46;;;;;;;18.17;10.77;;;;;;;;;;5016394;28;20037;-80
2023/08/20 05:49:15;;;;;;;17.83;11.27;;;;;;;;;;5006085;28;20046;-81
2023/08/20 05:51:43;;;;;;;21.83;13.43;;;;;;;;;;5003547;28;20061;-80
2023/08/20 05:54:10;;;;;;;21.77;13.20;;;;;;;;;;5013107;28;20049;-79
2023/08/20 05:56:37;;;;;;;21.98;13.80;;;;;;;;;;5004797;28;20053;-80
2023/08/20 05:59:04;;;;;;;22.40;13.45;;;;;;;;;;5024155;28;20419;-79
2023/08/20 06:01:31;;;;;;;23.52;13.13;;;;;;;;;;5003294;28;20046;-79
2023/08/20 06:03:59;;;;;;;20.92;13.48;;;;;;;;;;5009979;28;20046;-80
2023/08/20 06:06:27;;;;;;;19.13;12.80;;;;;;;;;;5006043;28;20054;-79
2023/08/20 06:08:53;;;;;;;20.17;13.75;;;;;;;;;;5006839;28;20450;-80
2023/08/20 06:11:34;;;;;;;22.15;14.20;;;;;;;;;;5001491;28;20043;-79
2023/08/20 06:14:02;;;;;;;22.63;13.70;;;;;;;;;;5011828;28;20108;-80
2023/08/20 06:16:29;;;;;;;19.65;13.10;;;;;;;;;;5011375;28;20054;-80
2023/08/20 06:18:57;;;;;;;20.98;12.55;;;;;;;;;;5008436;28;20510;-81
2023/08/20 06:21:24;;;;;;;21.30;13.60;;;;;;;;;;5016375;28;20076;-79
2023/08/20 06:23:51;;;;;;;18.55;12.48;;;;;;;;;;5005159;28;20046;-80
2023/08/20 06:26:19;;;;;;;19.70;12.52;;;;;;;;;;4999722;28;20106;-79
2023/08/20 06:28:45;;;;;;;20.30;12.70;;;;;;;;;;5009349;28;20046;-80
2023/08/20 06:31:12;;;;;;;19.48;12.77;;;;;;;;;;5008725;28;20050;-80
2023/08/20 06:33:40;;;;;;;19.35;13.00;;;;;;;;;;5007830;28;20127;-79
2023/08/20 06:36:07;;;;;;;20.88;12.38;;;;;;;;;;5023161;28;20064;-76
2023/08/20 06:38:33;;;;;;;16.10;11.55;;;;;;;;;;5005443;28;20054;-79
2023/08/20 06:41:00;;;;;;;20.70;11.77;;;;;;;;;;5005340;28;20050;-79
2023/08/20 06:43:27;;;;;;;21.70;11.85;;;;;;;;;;5006568;28;20060;-78
2023/08/20 06:45:53;;;;;;;17.05;10.65;;;;;;;;;;5000989;28;20507;-79
2023/08/20 06:48:22;;;;;;;17.27;11.23;;;;;;;;;;5001246;28;20046;-80
2023/08/20 06:50:48;;;;;;;19.00;10.75;;;;;;;;;;4995823;28;20042;-79
2023/08/20 06:53:15;;;;;;;17.15;10.48;;;;;;;;;;5001339;28;20069;-79
2023/08/20 06:55:42;;;;;;;16.73;10.07;;;;;;;;;;4991926;28;20061;-79
2023/08/20 06:58:08;;;;;;;21.67;10.45;;;;;;;;;;4993994;28;20455;-78
2023/08/20 07:00:35;;;;;;;21.20;12.13;;;;;;;;;;4989107;28;20562;-79
2023/08/20 07:03:03;;;;;;;19.98;11.38;;;;;;;;;;5015675;28;20134;-78
2023/08/20 07:05:30;;;;;;;15.95;9.27;;;;;;;;;;5007976;28;20073;-78
2023/08/20 07:07:56;;;;;;;17.50;10.60;;;;;;;;;;5010009;28;20129;-78
2023/08/20 07:10:23;;;;;;;18.63;10.38;;;;;;;;;;5007380;28;20060;-78
2023/08/20 07:12:50;;;;;;;15.77;10.02;;;;;;;;;;5010059;28;20060;-76
2023/08/20 07:15:16;;;;;;;16.27;10.98;;;;;;;;;;5008421;28;20045;-77
2023/08/20 07:17:43;;;;;;;16.17;11.55;;;;;;;;;;5014301;28;20139;-78
2023/08/20 07:20:12;;;;;;;17.35;10.38;;;;;;;;;;5010521;28;20054;-78
2023/08/20 07:22:39;;;;;;;18.77;10.48;;;;;;;;;;5017189;28;20056;-77
2023/08/20 07:25:06;;;;;;;18.20;11.23;;;;;;;;;;5004791;28;20054;-77
2023/08/20 07:27:32;;;;;;;15.48;10.60;;;;;;;;;;5006818;28;20057;-78
2023/08/20 07:30:00;;;;;;;18.33;10.70;;;;;;;;;;5004983;28;20104;-78
2023/08/20 07:32:26;;;;;;;17.38;10.85;;;;;;;;;;5007603;28;20046;-79
2023/08/20 07:34:53;;;;;;;17.05;9.82;;;;;;;;;;5005360;28;20046;-78
2023/08/20 07:37:20;;;;;;;17.90;9.77;;;;;;;;;;5006280;28;20103;-78
2023/08/20 07:39:47;;;;;;;18.17;10.23;;;;;;;;;;5001321;28;20410;-77
2023/08/20 07:42:14;;;;;;;17.70;10.32;;;;;;;;;;4997338;28;20038;-78
2023/08/20 07:44:41;;;;;;;18.02;10.90;;;;;;;;;;5006875;28;20396;-78
2023/08/20 07:47:07;;;;;;;15.73;10.55;;;;;;;;;;5013126;28;20057;-81
2023/08/20 07:49:34;;;;;;;19.98;10.43;;;;;;;;;;5034395;28;20089;-83
2023/08/20 07:52:02;;;;;;;19.70;11.63;;;;;;;;;;5022121;28;20053;-81
2023/08/20 07:54:29;;;;;;;20.25;10.05;;;;;;;;;;5019797;28;20100;-82
2023/08/20 07:56:55;;;;;;;13.32;8.45;;;;;;;;;;5022542;28;20037;-83
2023/08/20 07:59:22;;;;;;;19.27;11.25;;;;;;;;;;5023041;28;20128;-82
2023/08/20 08:01:49;;;;;;;16.33;10.40;;;;;;;;;;5008481;28;20490;-80
2023/08/20 08:04:16;;;;;;;15.57;11.05;;;;;;;;;;5006093;28;20068;-81
2023/08/20 08:06:42;;;;;;;17.25;10.98;;;;;;;;;;5006926;28;20498;-81
2023/08/20 08:09:20;;;;;;;16.58;11.80;;;;;;;;;;5018680;28;20045;-80
2023/08/20 08:11:47;;;;;;;18.67;10.93;;;;;;;;;;5013842;28;20047;-83
2023/08/20 08:14:14;;;;;;;13.52;9.63;;;;;;;;;;5016201;28;20046;-81
2023/08/20 08:16:41;;;;;;;14.85;9.15;;;;;;;;;;5010924;28;20118;-80
2023/08/20 08:19:07;;;;;;;14.35;8.77;;;;;;;;;;5014125;28;20061;-80
2023/08/20 08:21:34;;;;;;;10.82;8.30;;;;;;;;;;5008113;28;20045;-82
2023/08/20 08:24:01;;;;;;;14.25;9.15;;;;;;;;;;5011800;28;20050;-81
2023/08/20 08:26:28;;;;;;;11.90;8.50;;;;;;;;;;5003868;28;20050;-79
2023/08/20 08:28:55;;;;;;;12.27;8.10;;;;;;;;;;5007677;28;20062;-81
2023/08/20 08:31:21;;;;;;;13.10;8.57;;;;;;;;;;5009658;28;20064;-80
2023/08/20 08:33:48;;;;;;;13.68;9.65;;;;;;;;;;5009375;28;20056;-80
2023/08/20 08:36:16;;;;;;;12.80;9.30;;;;;;;;;;5005776;28;20215;-79
2023/08/20 08:38:43;;;;;;;14.57;8.85;;;;;;;;;;5019029;28;20086;-79
2023/08/20 08:41:11;;;;;;;12.95;8.80;;;;;;;;;;5000539;28;20101;-79
2023/08/20 08:43:38;;;;;;;14.10;9.73;;;;;;;;;;5004669;28;20495;-81
2023/08/20 08:46:15;;;;;;;13.25;9.25;;;;;;;;;;5013650;28;20050;-80
2023/08/20 08:48:43;;;;;;;16.15;10.10;;;;;;;;;;5009426;28;21094;-83
2023/08/20 08:51:11;;;;;;;19.25;9.52;;;;;;;;;;5015466;28;21754;-82
2023/08/20 08:53:37;;;;;;;15.75;9.25;;;;;;;;;;5017975;28;20105;-82
2023/08/20 08:56:05;;;;;;;12.55;8.43;;;;;;;;;;5005054;28;20108;-81
2023/08/20 08:58:34;;;;;;;13.77;9.10;;;;;;;;;;5004526;28;20076;-79
2023/08/20 09:01:02;;;;;;;12.27;7.97;;;;;;;;;;5007555;28;20053;-79
2023/08/20 09:03:28;;;;;;;13.77;8.93;;;;;;;;;;5007091;28;20086;-78
2023/08/20 09:06:00;;;;;;;12.90;9.13;;;;;;;;;;5016223;28;20049;-82
2023/08/20 09:08:27;;;;;;;13.75;9.57;;;;;;;;;;5009841;28;20533;-80
2023/08/20 09:10:55;;;;;;;12.98;9.20;;;;;;;;;;5009907;28;20054;-82
2023/08/20 09:13:22;;;;;;;14.20;8.77;;;;;;;;;;5009778;28;20054;-81
2023/08/20 09:15:52;;;;;;;13.98;9.25;;;;;;;;;;5018160;28;20105;-80
2023/08/20 09:18:19;;;;;;;10.00;7.70;;;;;;;;;;5008574;28;20054;-81
2023/08/20 09:20:49;;;;;;;12.55;8.65;;;;;;;;;;5013731;28;20057;-80
2023/08/20 09:23:16;;;;;;;10.80;8.32;;;;;;;;;;5010700;28;20104;-82
2023/08/20 09:25:43;;;;;;;14.23;8.27;;;;;;;;;;5006721;28;20259;-81
2023/08/20 09:28:09;;;;;;;13.20;8.35;;;;;;;;;;5009729;28;20073;-81
2023/08/20 09:30:39;;;;;;;13.55;8.40;;;;;;;;;;5001948;28;20054;-81
2023/08/20 09:33:11;;;;;;;12.13;8.68;;;;;;;;;;5011210;28;20046;-80
2023/08/20 09:35:38;;;;;;;13.73;8.93;;;;;;;;;;5008400;28;20072;-83
2023/08/20 09:38:05;;;;;;;11.30;8.57;;;;;;;;;;5014105;28;20050;-83
2023/08/20 09:40:32;;;;;;;11.35;8.55;;;;;;;;;;5021327;28;20049;-80
2023/08/20 09:42:59;;;;;;;16.42;9.57;;;;;;;;;;5032507;28;20047;-82
2023/08/20 09:45:28;;;;;;;12.13;8.27;;;;;;;;;;5013041;28;20046;-82
2023/08/20 09:47:56;;;;;;;10.98;8.48;;;;;;;;;;5018323;28;20041;-84
2023/08/20 09:50:23;;;;;;;10.25;8.05;;;;;;;;;;5008536;28;20600;-79
2023/08/20 09:53:03;;;;;;;12.90;8.35;;;;;;;;;;5006588;28;20045;-82
2023/08/20 09:55:33;;;;;;;12.50;7.90;;;;;;;;;;4999709;28;20070;-82
2023/08/20 09:58:01;;;;;;;12.63;8.13;;;;;;;;;;5002302;28;20065;-82
2023/08/20 10:00:28;;;;;;;13.68;7.82;;;;;;;;;;5012940;28;20045;-81
2023/08/20 10:02:56;;;;;;;10.80;7.82;;;;;;;;;;5010189;28;20050;-81
2023/08/20 10:05:23;;;;;;;10.38;7.15;;;;;;;;;;5006373;28;20050;-82
2023/08/20 10:07:51;;;;;;;10.00;7.03;;;;;;;;;;5019696;28;20215;-83
2023/08/20 10:10:17;;;;;;;11.68;7.43;;;;;;;;;;5000779;28;20053;-81
2023/08/20 10:12:45;;;;;;;10.80;8.10;;;;;;;;;;5024612;28;20038;-82
2023/08/20 10:15:13;;;;;;;9.23;6.90;;;;;;;;;;5019147;28;20059;-81
2023/08/20 10:17:44;;;;;;;9.43;6.60;;;;;;;;;;5010195;28;20061;-82
2023/08/20 10:20:13;;;;;;;10.57;6.55;;;;;;;;;;5007359;28;20104;-82
2023/08/20 10:22:41;;;;;;;10.50;6.88;;;;;;;;;;5024592;28;20042;-82
2023/08/20 10:25:08;;;;;;;12.40;6.78;;;;;;;;;;5008855;28;20061;-80
2023/08/20 10:27:37;;;;;;;10.75;6.43;;;;;;;;;;5018566;28;20418;-82
2023/08/20 10:30:25;;;;;;;10.52;6.22;;;;;;;;;;5017957;28;20127;-81
2023/08/20 10:32:52;;;;;;;12.10;5.75;;;;;;;;;;5013882;28;20075;-80
2023/08/20 10:35:23;;;;;;;8.43;5.78;;;;;;;;;;5010852;28;20133;-84
2023/08/20 10:38:05;;;;;;;8.48;6.22;;;;;;;;;;5025520;28;20313;-81
2023/08/20 10:40:50;;;;;;;9.40;5.60;;;;;;;;;;5014056;28;20049;-81
2023/08/20 10:43:30;;;;;;;9.00;5.97;;;;;;;;;;5013277;28;20049;-82
2023/08/20 10:46:09;;;;;;;7.75;5.88;;;;;;;;;;5020418;28;20393;-82
2023/08/20 10:48:38;;;;;;;8.85;6.07;;;;;;;;;;5016647;28;20046;-80
2023/08/20 10:51:11;;;;;;;7.28;6.03;;;;;;;;;;5011421;28;20049;-83
2023/08/20 10:53:38;;;;;;;8.10;6.10;;;;;;;;;;5021082;28;20411;-82
2023/08/20 10:56:12;;;;;;;7.97;5.72;;;;;;;;;;5024080;28;20057;-82
2023/08/20 10:58:41;;;;;;;8.77;6.40;;;;;;;;;;5017566;28;20092;-81
2023/08/20 11:01:17;;;;;;;11.63;6.13;;;;;;;;;;5033482;28;20049;-78
2023/08/20 11:03:48;;;;;;;7.60;5.32;;;;;;;;;;5022814;28;20079;-79
2023/08/20 11:06:15;;;;;;;9.02;5.55;;;;;;;;;;5024315;28;20712;-83
2023/08/20 11:08:42;;;;;;;7.18;5.50;;;;;;;;;;5026427;28;20041;-82
2023/08/20 11:11:10;;;;;;;8.60;5.40;;;;;;;;;;5025311;28;20033;-80
2023/08/20 11:13:36;;;;;;;8.70;5.97;;;;;;;;;;5008540;28;20106;-79
2023/08/20 11:16:03;;;;;;;7.10;5.90;;;;;;;;;;5012102;28;20054;-80
2023/08/20 11:18:32;;;;;;;9.10;6.10;;;;;;;;;;5023835;28;20053;-81
2023/08/20 11:20:59;;;;;;;8.13;5.30;;;;;;;;;;5021635;28;20833;-79
2023/08/20 11:23:25;;;;;;;7.97;6.00;;;;;;;;;;5025274;28;20111;-79
2023/08/20 11:25:52;;;;;;;7.50;5.45;;;;;;;;;;5009719;28;20053;-79
2023/08/20 11:28:19;;;;;;;9.18;5.90;;;;;;;;;;5011399;28;20063;-80
2023/08/20 11:30:46;;;;;;;10.60;6.18;;;;;;;;;;5006778;28;20038;-78
2023/08/20 11:33:13;;;;;;;6.35;5.13;;;;;;;;;;5004870;28;20061;-80
2023/08/20 11:35:41;;;;;;;9.38;5.68;;;;;;;;;;5003603;28;20069;-81
2023/08/20 11:38:09;;;;;;;7.13;5.65;;;;;;;;;;5010051;28;20053;-80
2023/08/20 11:40:36;;;;;;;7.88;5.72;;;;;;;;;;5005090;28;20046;-80
2023/08/20 11:43:03;;;;;;;10.48;6.00;;;;;;;;;;5006125;28;20102;-78
2023/08/20 11:45:32;;;;;;;7.82;5.25;;;;;;;;;;5004949;28;20054;-81
2023/08/20 11:47:59;;;;;;;7.57;5.82;;;;;;;;;;5012149;28;20046;-81
2023/08/20 11:50:26;;;;;;;8.02;5.72;;;;;;;;;;5013385;28;20050;-82
2023/08/20 11:52:54;;;;;;;10.32;5.88;;;;;;;;;;5005713;28;20046;-81
2023/08/20 11:55:24;;;;;;;7.15;5.72;;;;;;;;;;5005068;28;20053;-81
2023/08/20 11:57:52;;;;;;;9.82;5.95;;;;;;;;;;5008853;28;20049;-81
2023/08/20 12:00:26;;;;;;;10.38;5.97;;;;;;;;;;5006060;28;20053;-80
2023/08/20 12:02:54;;;;;;;9.02;5.75;;;;;;;;;;5010390;28;20106;-82
2023/08/20 12:05:24;;;;;;;7.32;6.20;;;;;;;;;;5008178;28;20506;-80
2023/08/20 12:07:59;;;;;;;8.80;5.45;;;;;;;;;;5011100;28;20060;-83
2023/08/20 12:10:27;;;;;;;7.78;5.93;;;;;;;;;;5013926;28;20061;-82
2023/08/20 12:12:55;;;;;;;7.15;5.47;;;;;;;;;;5014127;28;20069;-83
2023/08/20 12:15:22;;;;;;;7.22;5.07;;;;;;;;;;5008725;28;20104;-82
2023/08/20 12:17:56;;;;;;;9.27;5.95;;;;;;;;;;5016755;28;20057;-79
2023/08/20 12:20:23;;;;;;;6.47;5.07;;;;;;;;;;5002896;28;20045;-81
2023/08/20 12:22:50;;;;;;;7.22;5.60;;;;;;;;;;5003846;28;20054;-82
2023/08/20 12:25:16;;;;;;;7.10;6.20;;;;;;;;;;4997215;28;20054;-82
2023/08/20 12:27:43;;;;;;;9.10;5.95;;;;;;;;;;5032217;28;20034;-81
2023/08/20 12:30:10;;;;;;;9.80;5.40;;;;;;;;;;5024300;28;20050;-81
2023/08/20 12:32:37;;;;;;;8.23;6.32;;;;;;;;;;5024615;28;20050;-82
2023/08/20 12:35:04;;;;;;;8.57;5.45;;;;;;;;;;5013642;28;20052;-80
2023/08/20 12:37:31;;;;;;;9.10;5.68;;;;;;;;;;5008858;28;20076;-80
2023/08/20 12:39:57;;;;;;;7.40;6.10;;;;;;;;;;5004322;28;20050;-83
2023/08/20 12:42:24;;;;;;;7.45;5.75;;;;;;;;;;5015699;28;20080;-83
2023/08/20 12:44:51;;;;;;;9.85;5.25;;;;;;;;;;5014805;28;20057;-82
2023/08/20 12:47:17;;;;;;;8.02;5.72;;;;;;;;;;5010009;28;20077;-84
2023/08/20 12:49:44;;;;;;;8.13;5.82;;;;;;;;;;4990421;28;20761;-83
2023/08/20 12:52:10;;;;;;;8.95;5.53;;;;;;;;;;5007694;28;20045;-83
2023/08/20 12:54:37;;;;;;;8.75;5.90;;;;;;;;;;5006254;28;20496;-83
2023/08/20 12:57:04;;;;;;;9.38;5.53;;;;;;;;;;5009874;28;20056;-81
2023/08/20 12:59:30;;;;;;;8.38;5.35;;;;;;;;;;5003590;28;20054;-84
2023/08/20 13:01:58;;;;;;;8.63;5.50;;;;;;;;;;5009575;28;20045;-85
2023/08/20 13:04:25;;;;;;;7.35;5.60;;;;;;;;;;5008967;28;20050;-81
2023/08/20 13:06:51;;;;;;;6.07;5.07;;;;;;;;;;5005187;28;20050;-85
2023/08/20 13:09:21;;;;;;;8.50;5.50;;;;;;;;;;5008900;28;20038;-82
2023/08/20 13:11:48;;;;;;;6.88;5.30;;;;;;;;;;5005980;28;20070;-81
2023/08/20 13:14:15;;;;;;;6.30;5.60;;;;;;;;;;5009196;28;20083;-83
2023/08/20 13:16:43;;;;;;;8.20;5.70;;;;;;;;;;5005195;28;20503;-83
2023/08/20 13:19:09;;;;;;;6.35;5.32;;;;;;;;;;5028283;28;20048;-84
2023/08/20 13:21:36;;;;;;;7.32;5.65;;;;;;;;;;5007629;28;20065;-82
2023/08/20 13:24:03;;;;;;;7.47;5.70;;;;;;;;;;5008221;28;20675;-79
2023/08/20 13:26:31;;;;;;;7.65;5.65;;;;;;;;;;5015140;28;20076;-84
2023/08/20 13:28:57;;;;;;;6.60;5.65;;;;;;;;;;4987366;28;20046;-79
2023/08/20 13:31:24;;;;;;;6.45;5.57;;;;;;;;;;5006461;28;20137;-79
2023/08/20 13:33:51;;;;;;;8.60;5.60;;;;;;;;;;5001095;28;20054;-78
2023/08/20 13:36:17;;;;;;;5.75;5.10;;;;;;;;;;4998693;28;20073;-79
2023/08/20 13:38:44;;;;;;;8.63;5.60;;;;;;;;;;5003387;28;20061;-78
2023/08/20 13:41:11;;;;;;;6.93;5.68;;;;;;;;;;5006818;28;20046;-84
2023/08/20 13:43:37;;;;;;;7.22;5.47;;;;;;;;;;5002309;28;20072;-81
2023/08/20 13:46:04;;;;;;;6.30;5.32;;;;;;;;;;4995745;28;20395;-81
2023/08/20 13:48:31;;;;;;;7.53;5.03;;;;;;;;;;4993725;28;20620;-82
2023/08/20 13:50:58;;;;;;;7.00;5.15;;;;;;;;;;4999353;28;20054;-79
2023/08/20 13:53:24;;;;;;;5.70;4.97;;;;;;;;;;5002459;28;20049;-78
2023/08/20 13:55:51;;;;;;;7.72;5.43;;;;;;;;;;5004774;28;20053;-78
2023/08/20 13:58:18;;;;;;;6.38;5.10;;;;;;;;;;5006826;28;20050;-81
2023/08/20 14:00:45;;;;;;;6.22;4.75;;;;;;;;;;5013711;28;20061;-79
2023/08/20 14:03:11;;;;;;;8.82;5.65;;;;;;;;;;5020083;28;20069;-82
2023/08/20 14:05:38;;;;;;;9.60;5.65;;;;;;;;;;4998085;28;20061;-83
2023/08/20 14:08:05;;;;;;;6.47;5.03;;;;;;;;;;4999062;28;20049;-81
2023/08/20 14:10:31;;;;;;;7.28;5.07;;;;;;;;;;5016771;28;20057;-80
2023/08/20 14:12:58;;;;;;;9.52;5.00;;;;;;;;;;5013013;28;20157;-81
2023/08/20 14:15:25;;;;;;;9.95;4.38;;;;;;;;;;5007517;28;20053;-81
2023/08/20 14:17:52;;;;;;;7.10;5.07;;;;;;;;;;5011310;28;20046;-83
2023/08/20 14:20:18;;;;;;;7.65;5.03;;;;;;;;;;5010433;28;20050;-82
2023/08/20 14:22:45;;;;;;;9.25;5.10;;;;;;;;;;5009260;28;20077;-80
2023/08/20 14:25:12;;;;;;;7.90;4.72;;;;;;;;;;5008877;28;20050;-80
2023/08/20 14:27:38;;;;;;;5.97;4.78;;;;;;;;;;5001824;28;20046;-81
2023/08/20 14:30:06;;;;;;;6.80;4.63;;;;;;;;;;5008381;28;20056;-85
2023/08/20 14:32:33;;;;;;;5.35;4.80;;;;;;;;;;5007880;28;20070;-83
2023/08/20 14:35:01;;;;;;;8.90;5.50;;;;;;;;;;5028323;28;20056;-81
2023/08/20 14:37:28;;;;;;;6.88;4.90;;;;;;;;;;5017868;28;20061;-84